sensor_id;sensor_type;location;lat;lon;timestamp;P1;durP1;ratioP1;P2;durP2;ratioP2
40591;SDS011;26301;42.832;23.918;2022-08-19T12:17:30;7.65;;;3.35;;
40591;SDS011;26301;42.832;23.918;2022-08-19T12:19:56;3.80;;;2.80;;
40591;SDS011;26301;42.832;23.918;2022-08-19T12:22:22;4.35;;;2.90;;
40591;SDS011;26301;42.832;23.918;2022-08-19T12:24:48;5.50;;;3.45;;
40591;SDS011;26301;42.832;23.918;2022-08-19T12:27:16;7.75;;;3.35;;
40591;SDS011;26301;42.832;23.918;2022-08-19T12:29:42;4.88;;;3.00;;
40591;SDS011;26301;42.832;23.918;2022-08-19T12:32:08;5.38;;;3.30;;
40591;SDS011;26301;42.832;23.918;2022-08-19T12:34:34;6.50;;;3.03;;
40591;SDS011;26301;42.832;23.918;2022-08-19T12:37:02;6.38;;;3.25;;
40591;SDS011;26301;42.832;23.918;2022-08-19T12:39:33;3.88;;;2.80;;
40591;SDS011;26301;42.832;23.918;2022-08-19T12:42:00;6.35;;;3.40;;
40591;SDS011;26301;42.832;23.918;2022-08-19T12:44:26;4.15;;;2.90;;
40591;SDS011;26301;42.832;23.918;2022-08-19T12:46:52;6.28;;;3.30;;
40591;SDS011;26301;42.832;23.918;2022-08-19T12:49:18;8.10;;;3.42;;
40591;SDS011;26301;42.832;23.918;2022-08-19T12:51:44;5.78;;;3.47;;
40591;SDS011;26301;42.832;23.918;2022-08-19T12:54:09;5.75;;;3.80;;
40591;SDS011;26301;42.832;23.918;2022-08-19T12:56:35;5.20;;;3.45;;
40591;SDS011;26301;42.832;23.918;2022-08-19T12:59:02;6.43;;;3.25;;
40591;SDS011;26301;42.832;23.918;2022-08-19T13:01:29;5.68;;;3.40;;
40591;SDS011;26301;42.832;23.918;2022-08-19T13:03:57;5.25;;;3.22;;
40591;SDS011;26301;42.832;23.918;2022-08-19T13:06:24;5.93;;;3.63;;
40591;SDS011;26301;42.832;23.918;2022-08-19T13:08:50;6.80;;;3.30;;
40591;SDS011;26301;42.832;23.918;2022-08-19T13:11:17;7.97;;;3.50;;
40591;SDS011;26301;42.832;23.918;2022-08-19T13:13:48;5.63;;;3.15;;
40591;SDS011;26301;42.832;23.918;2022-08-19T13:16:16;5.45;;;3.53;;
40591;SDS011;26301;42.832;23.918;2022-08-19T13:18:44;5.78;;;3.50;;
40591;SDS011;26301;42.832;23.918;2022-08-19T13:21:17;5.65;;;3.63;;
40591;SDS011;26301;42.832;23.918;2022-08-19T13:23:45;5.78;;;3.55;;
40591;SDS011;26301;42.832;23.918;2022-08-19T13:26:11;7.30;;;4.13;;
40591;SDS011;26301;42.832;23.918;2022-08-19T13:28:38;7.63;;;3.60;;
40591;SDS011;26301;42.832;23.918;2022-08-19T13:31:24;4.40;;;3.50;;
40591;SDS011;26301;42.832;23.918;2022-08-19T13:34:09;4.90;;;3.55;;
40591;SDS011;26301;42.832;23.918;2022-08-19T13:36:36;5.25;;;3.60;;
40591;SDS011;26301;42.832;23.918;2022-08-19T13:39:02;4.07;;;3.28;;
40591;SDS011;26301;42.832;23.918;2022-08-19T13:41:29;5.30;;;3.60;;
40591;SDS011;26301;42.832;23.918;2022-08-19T13:43:56;8.10;;;3.75;;
40591;SDS011;26301;42.832;23.918;2022-08-19T13:46:21;3.78;;;2.95;;
40591;SDS011;26301;42.832;23.918;2022-08-19T13:48:47;10.23;;;3.85;;
40591;SDS011;26301;42.832;23.918;2022-08-19T13:51:13;6.22;;;3.90;;
40591;SDS011;26301;42.832;23.918;2022-08-19T13:53:41;4.57;;;3.78;;
40591;SDS011;26301;42.832;23.918;2022-08-19T13:56:10;5.60;;;3.70;;
40591;SDS011;26301;42.832;23.918;2022-08-19T13:58:37;4.78;;;3.60;;
40591;SDS011;26301;42.832;23.918;2022-08-19T14:01:04;4.18;;;3.40;;
40591;SDS011;26301;42.832;23.918;2022-08-19T14:03:31;6.72;;;3.38;;
40591;SDS011;26301;42.832;23.918;2022-08-19T14:05:58;5.97;;;3.83;;
40591;SDS011;26301;42.832;23.918;2022-08-19T14:08:24;6.00;;;3.53;;
40591;SDS011;26301;42.832;23.918;2022-08-19T14:10:50;7.32;;;3.40;;
40591;SDS011;26301;42.832;23.918;2022-08-19T14:13:17;6.80;;;3.78;;
40591;SDS011;26301;42.832;23.918;2022-08-19T14:15:44;7.00;;;4.15;;
40591;SDS011;26301;42.832;23.918;2022-08-19T14:18:12;5.65;;;3.60;;
40591;SDS011;26301;42.832;23.918;2022-08-19T14:20:38;6.10;;;3.58;;
40591;SDS011;26301;42.832;23.918;2022-08-19T14:23:04;6.68;;;3.70;;
40591;SDS011;26301;42.832;23.918;2022-08-19T14:25:31;7.10;;;3.63;;
40591;SDS011;26301;42.832;23.918;2022-08-19T14:27:58;8.98;;;3.65;;
40591;SDS011;26301;42.832;23.918;2022-08-19T14:30:29;6.78;;;3.63;;
40591;SDS011;26301;42.832;23.918;2022-08-19T14:32:57;4.60;;;3.38;;
40591;SDS011;26301;42.832;23.918;2022-08-19T14:35:24;5.72;;;3.67;;
40591;SDS011;26301;42.832;23.918;2022-08-19T14:37:51;4.00;;;3.35;;
40591;SDS011;26301;42.832;23.918;2022-08-19T14:40:21;4.72;;;3.53;;
40591;SDS011;26301;42.832;23.918;2022-08-19T14:42:59;4.00;;;3.50;;
40591;SDS011;26301;42.832;23.918;2022-08-19T14:45:29;6.78;;;3.85;;
40591;SDS011;26301;42.832;23.918;2022-08-19T14:47:57;6.85;;;3.60;;
40591;SDS011;26301;42.832;23.918;2022-08-19T14:50:24;7.43;;;3.75;;
40591;SDS011;26301;42.832;23.918;2022-08-19T14:52:57;5.10;;;3.50;;
40591;SDS011;26301;42.832;23.918;2022-08-19T14:55:27;5.47;;;3.53;;
40591;SDS011;26301;42.832;23.918;2022-08-19T14:57:53;7.55;;;3.60;;
40591;SDS011;26301;42.832;23.918;2022-08-19T15:00:19;6.70;;;3.58;;
40591;SDS011;26301;42.832;23.918;2022-08-19T15:02:45;4.43;;;3.67;;
40591;SDS011;26301;42.832;23.918;2022-08-19T15:05:11;9.82;;;4.00;;
40591;SDS011;26301;42.832;23.918;2022-08-19T15:07:38;5.68;;;3.28;;
40591;SDS011;26301;42.832;23.918;2022-08-19T15:10:05;6.13;;;3.22;;
40591;SDS011;26301;42.832;23.918;2022-08-19T15:12:36;7.25;;;4.10;;
40591;SDS011;26301;42.832;23.918;2022-08-19T15:15:12;7.53;;;3.80;;
40591;SDS011;26301;42.832;23.918;2022-08-19T15:17:43;6.78;;;3.95;;
40591;SDS011;26301;42.832;23.918;2022-08-19T15:20:15;5.90;;;4.22;;
40591;SDS011;26301;42.832;23.918;2022-08-19T15:25:10;8.45;;;3.83;;
40591;SDS011;26301;42.832;23.918;2022-08-19T15:27:38;9.10;;;3.97;;
40591;SDS011;26301;42.832;23.918;2022-08-19T15:30:05;5.32;;;3.50;;
40591;SDS011;26301;42.832;23.918;2022-08-19T15:32:33;6.57;;;3.92;;
40591;SDS011;26301;42.832;23.918;2022-08-19T15:34:59;5.60;;;3.65;;
40591;SDS011;26301;42.832;23.918;2022-08-19T15:37:27;6.13;;;3.50;;
40591;SDS011;26301;42.832;23.918;2022-08-19T15:39:52;6.25;;;4.05;;
40591;SDS011;26301;42.832;23.918;2022-08-19T15:42:18;8.40;;;3.60;;
40591;SDS011;26301;42.832;23.918;2022-08-19T15:44:45;10.30;;;3.88;;
40591;SDS011;26301;42.832;23.918;2022-08-19T15:47:12;6.00;;;3.40;;
40591;SDS011;26301;42.832;23.918;2022-08-19T15:49:38;5.60;;;3.63;;
40591;SDS011;26301;42.832;23.918;2022-08-19T15:52:04;4.80;;;3.85;;
40591;SDS011;26301;42.832;23.918;2022-08-19T15:54:32;7.28;;;4.15;;
40591;SDS011;26301;42.832;23.918;2022-08-19T15:56:58;6.45;;;3.35;;
40591;SDS011;26301;42.832;23.918;2022-08-19T15:59:42;7.28;;;4.15;;
40591;SDS011;26301;42.832;23.918;2022-08-19T16:02:27;6.22;;;4.00;;
40591;SDS011;26301;42.832;23.918;2022-08-19T16:05:13;4.57;;;3.72;;
40591;SDS011;26301;42.832;23.918;2022-08-19T16:07:59;4.40;;;3.60;;
40591;SDS011;26301;42.832;23.918;2022-08-19T16:10:25;5.97;;;3.75;;
40591;SDS011;26301;42.832;23.918;2022-08-19T16:12:51;5.25;;;3.20;;
40591;SDS011;26301;42.832;23.918;2022-08-19T16:15:18;6.35;;;4.25;;
40591;SDS011;26301;42.832;23.918;2022-08-19T16:17:45;4.97;;;3.45;;
40591;SDS011;26301;42.832;23.918;2022-08-19T16:20:11;6.82;;;4.15;;
40591;SDS011;26301;42.832;23.918;2022-08-19T16:22:38;5.60;;;3.25;;
40591;SDS011;26301;42.832;23.918;2022-08-19T16:25:05;6.03;;;3.72;;
40591;SDS011;26301;42.832;23.918;2022-08-19T16:27:33;6.72;;;3.80;;
40591;SDS011;26301;42.832;23.918;2022-08-19T16:30:00;4.63;;;3.72;;
40591;SDS011;26301;42.832;23.918;2022-08-19T16:32:26;6.68;;;3.97;;
40591;SDS011;26301;42.832;23.918;2022-08-19T16:34:52;9.70;;;4.00;;
40591;SDS011;26301;42.832;23.918;2022-08-19T16:37:18;7.78;;;4.05;;
40591;SDS011;26301;42.832;23.918;2022-08-19T16:39:45;6.97;;;4.70;;
40591;SDS011;26301;42.832;23.918;2022-08-19T16:42:11;5.93;;;4.50;;
40591;SDS011;26301;42.832;23.918;2022-08-19T16:44:42;5.40;;;4.07;;
40591;SDS011;26301;42.832;23.918;2022-08-19T16:47:10;7.07;;;4.30;;
40591;SDS011;26301;42.832;23.918;2022-08-19T16:49:37;8.02;;;4.20;;
40591;SDS011;26301;42.832;23.918;2022-08-19T16:52:04;7.18;;;4.40;;
40591;SDS011;26301;42.832;23.918;2022-08-19T16:54:30;7.40;;;4.43;;
40591;SDS011;26301;42.832;23.918;2022-08-19T16:56:56;5.95;;;4.43;;
40591;SDS011;26301;42.832;23.918;2022-08-19T16:59:22;5.78;;;4.40;;
40591;SDS011;26301;42.832;23.918;2022-08-19T17:01:49;8.50;;;4.57;;
40591;SDS011;26301;42.832;23.918;2022-08-19T17:04:16;6.95;;;4.10;;
40591;SDS011;26301;42.832;23.918;2022-08-19T17:06:43;6.35;;;4.53;;
40591;SDS011;26301;42.832;23.918;2022-08-19T17:09:09;7.60;;;4.45;;
40591;SDS011;26301;42.832;23.918;2022-08-19T17:11:34;8.50;;;4.60;;
40591;SDS011;26301;42.832;23.918;2022-08-19T17:14:01;5.53;;;3.95;;
40591;SDS011;26301;42.832;23.918;2022-08-19T17:16:30;5.97;;;4.40;;
40591;SDS011;26301;42.832;23.918;2022-08-19T17:18:58;4.82;;;4.25;;
40591;SDS011;26301;42.832;23.918;2022-08-19T17:21:27;8.15;;;4.70;;
40591;SDS011;26301;42.832;23.918;2022-08-19T17:23:56;6.75;;;4.80;;
40591;SDS011;26301;42.832;23.918;2022-08-19T17:26:24;9.70;;;4.55;;
40591;SDS011;26301;42.832;23.918;2022-08-19T17:28:51;6.35;;;4.50;;
40591;SDS011;26301;42.832;23.918;2022-08-19T17:31:19;5.25;;;4.65;;
40591;SDS011;26301;42.832;23.918;2022-08-19T17:33:47;7.30;;;4.72;;
40591;SDS011;26301;42.832;23.918;2022-08-19T17:36:14;6.05;;;4.70;;
40591;SDS011;26301;42.832;23.918;2022-08-19T17:38:43;6.85;;;4.75;;
40591;SDS011;26301;42.832;23.918;2022-08-19T17:41:09;7.57;;;5.00;;
40591;SDS011;26301;42.832;23.918;2022-08-19T17:43:36;8.65;;;4.97;;
40591;SDS011;26301;42.832;23.918;2022-08-19T17:46:02;7.82;;;4.55;;
40591;SDS011;26301;42.832;23.918;2022-08-19T17:48:29;5.93;;;4.82;;
40591;SDS011;26301;42.832;23.918;2022-08-19T17:50:56;6.63;;;4.88;;
40591;SDS011;26301;42.832;23.918;2022-08-19T17:53:24;8.98;;;5.22;;
40591;SDS011;26301;42.832;23.918;2022-08-19T17:55:50;5.88;;;4.55;;
40591;SDS011;26301;42.832;23.918;2022-08-19T17:58:16;8.82;;;4.80;;
40591;SDS011;26301;42.832;23.918;2022-08-19T18:00:44;6.70;;;5.00;;
40591;SDS011;26301;42.832;23.918;2022-08-19T18:03:10;6.65;;;4.95;;
40591;SDS011;26301;42.832;23.918;2022-08-19T18:05:39;6.25;;;4.68;;
40591;SDS011;26301;42.832;23.918;2022-08-19T18:08:06;6.70;;;4.70;;
40591;SDS011;26301;42.832;23.918;2022-08-19T18:10:33;7.00;;;5.40;;
40591;SDS011;26301;42.832;23.918;2022-08-19T18:12:59;7.50;;;4.88;;
40591;SDS011;26301;42.832;23.918;2022-08-19T18:15:25;7.05;;;4.75;;
40591;SDS011;26301;42.832;23.918;2022-08-19T18:17:51;6.50;;;4.63;;
40591;SDS011;26301;42.832;23.918;2022-08-19T18:20:17;7.35;;;4.80;;
40591;SDS011;26301;42.832;23.918;2022-08-19T18:22:45;6.68;;;4.88;;
40591;SDS011;26301;42.832;23.918;2022-08-19T18:25:21;7.80;;;5.00;;
40591;SDS011;26301;42.832;23.918;2022-08-19T18:27:50;8.38;;;5.10;;
40591;SDS011;26301;42.832;23.918;2022-08-19T18:30:18;7.43;;;5.05;;
40591;SDS011;26301;42.832;23.918;2022-08-19T18:32:46;7.28;;;5.13;;
40591;SDS011;26301;42.832;23.918;2022-08-19T18:35:20;6.60;;;5.28;;
40591;SDS011;26301;42.832;23.918;2022-08-19T18:37:50;8.35;;;5.35;;
40591;SDS011;26301;42.832;23.918;2022-08-19T18:40:18;6.82;;;5.15;;
40591;SDS011;26301;42.832;23.918;2022-08-19T18:43:04;6.32;;;4.90;;
40591;SDS011;26301;42.832;23.918;2022-08-19T18:45:49;5.50;;;4.85;;
40591;SDS011;26301;42.832;23.918;2022-08-19T18:48:33;6.68;;;4.90;;
40591;SDS011;26301;42.832;23.918;2022-08-19T18:51:18;8.52;;;5.13;;
40591;SDS011;26301;42.832;23.918;2022-08-19T18:53:45;7.65;;;4.95;;
40591;SDS011;26301;42.832;23.918;2022-08-19T18:56:15;8.95;;;5.57;;
40591;SDS011;26301;42.832;23.918;2022-08-19T18:58:43;6.32;;;4.80;;
40591;SDS011;26301;42.832;23.918;2022-08-19T19:01:16;6.10;;;4.85;;
40591;SDS011;26301;42.832;23.918;2022-08-19T19:03:46;7.28;;;4.75;;
40591;SDS011;26301;42.832;23.918;2022-08-19T19:08:54;6.65;;;4.80;;
40591;SDS011;26301;42.832;23.918;2022-08-19T19:11:22;7.93;;;5.00;;
40591;SDS011;26301;42.832;23.918;2022-08-19T19:13:50;7.70;;;4.97;;
40591;SDS011;26301;42.832;23.918;2022-08-19T19:16:16;6.93;;;5.45;;
40591;SDS011;26301;42.832;23.918;2022-08-19T19:18:42;8.50;;;5.50;;
40591;SDS011;26301;42.832;23.918;2022-08-19T19:21:09;6.88;;;5.22;;
40591;SDS011;26301;42.832;23.918;2022-08-19T19:23:36;6.03;;;5.30;;
40591;SDS011;26301;42.832;23.918;2022-08-19T19:26:08;5.30;;;4.50;;
40591;SDS011;26301;42.832;23.918;2022-08-19T19:28:36;6.30;;;4.95;;
40591;SDS011;26301;42.832;23.918;2022-08-19T19:31:07;6.70;;;4.73;;
40591;SDS011;26301;42.832;23.918;2022-08-19T19:33:40;6.97;;;5.22;;
40591;SDS011;26301;42.832;23.918;2022-08-19T19:36:07;6.57;;;5.13;;
40591;SDS011;26301;42.832;23.918;2022-08-19T19:38:33;7.57;;;5.20;;
40591;SDS011;26301;42.832;23.918;2022-08-19T19:40:59;5.78;;;5.15;;
40591;SDS011;26301;42.832;23.918;2022-08-19T19:43:25;6.55;;;5.65;;
40591;SDS011;26301;42.832;23.918;2022-08-19T19:45:54;5.93;;;5.03;;
40591;SDS011;26301;42.832;23.918;2022-08-19T19:48:20;6.15;;;5.10;;
40591;SDS011;26301;42.832;23.918;2022-08-19T19:50:46;4.70;;;4.15;;
40591;SDS011;26301;42.832;23.918;2022-08-19T19:53:12;7.60;;;5.03;;
40591;SDS011;26301;42.832;23.918;2022-08-19T19:55:41;7.40;;;5.30;;
40591;SDS011;26301;42.832;23.918;2022-08-19T19:58:07;7.13;;;4.85;;
40591;SDS011;26301;42.832;23.918;2022-08-19T20:00:33;7.18;;;4.55;;
40591;SDS011;26301;42.832;23.918;2022-08-19T20:02:58;6.10;;;4.75;;
40591;SDS011;26301;42.832;23.918;2022-08-19T20:05:24;6.25;;;5.10;;
40591;SDS011;26301;42.832;23.918;2022-08-19T20:07:53;6.95;;;5.15;;
40591;SDS011;26301;42.832;23.918;2022-08-19T20:10:39;6.22;;;5.13;;
40591;SDS011;26301;42.832;23.918;2022-08-19T20:13:06;6.78;;;5.10;;
40591;SDS011;26301;42.832;23.918;2022-08-19T20:15:33;7.22;;;5.28;;
40591;SDS011;26301;42.832;23.918;2022-08-19T20:18:00;10.88;;;4.97;;
40591;SDS011;26301;42.832;23.918;2022-08-19T20:20:29;6.38;;;4.95;;
40591;SDS011;26301;42.832;23.918;2022-08-19T20:22:56;6.45;;;5.15;;
40591;SDS011;26301;42.832;23.918;2022-08-19T20:25:22;5.93;;;4.85;;
40591;SDS011;26301;42.832;23.918;2022-08-19T20:27:49;8.82;;;5.05;;
40591;SDS011;26301;42.832;23.918;2022-08-19T20:30:16;5.88;;;4.85;;
40591;SDS011;26301;42.832;23.918;2022-08-19T20:32:43;7.22;;;5.53;;
40591;SDS011;26301;42.832;23.918;2022-08-19T20:35:13;5.55;;;4.68;;
40591;SDS011;26301;42.832;23.918;2022-08-19T20:37:40;6.70;;;5.05;;
40591;SDS011;26301;42.832;23.918;2022-08-19T20:40:07;10.25;;;5.50;;
40591;SDS011;26301;42.832;23.918;2022-08-19T20:42:34;7.95;;;5.40;;
40591;SDS011;26301;42.832;23.918;2022-08-19T20:45:04;5.78;;;5.07;;
40591;SDS011;26301;42.832;23.918;2022-08-19T20:47:33;6.30;;;5.15;;
40591;SDS011;26301;42.832;23.918;2022-08-19T20:50:00;6.97;;;5.05;;
40591;SDS011;26301;42.832;23.918;2022-08-19T20:52:28;7.63;;;5.25;;
40591;SDS011;26301;42.832;23.918;2022-08-19T20:54:54;7.57;;;5.38;;
40591;SDS011;26301;42.832;23.918;2022-08-19T20:57:20;8.25;;;4.97;;
40591;SDS011;26301;42.832;23.918;2022-08-19T20:59:46;7.47;;;5.65;;
40591;SDS011;26301;42.832;23.918;2022-08-19T21:02:12;6.43;;;4.97;;
40591;SDS011;26301;42.832;23.918;2022-08-19T21:04:38;6.28;;;4.72;;
40591;SDS011;26301;42.832;23.918;2022-08-19T21:07:04;7.38;;;4.95;;
40591;SDS011;26301;42.832;23.918;2022-08-19T21:09:31;8.35;;;5.28;;
40591;SDS011;26301;42.832;23.918;2022-08-19T21:11:57;6.25;;;4.78;;
40591;SDS011;26301;42.832;23.918;2022-08-19T21:14:23;7.57;;;4.70;;
40591;SDS011;26301;42.832;23.918;2022-08-19T21:16:49;13.13;;;5.13;;
40591;SDS011;26301;42.832;23.918;2022-08-19T21:19:14;8.82;;;5.38;;
40591;SDS011;26301;42.832;23.918;2022-08-19T21:21:42;8.48;;;5.22;;
40591;SDS011;26301;42.832;23.918;2022-08-19T21:24:10;8.50;;;4.88;;
40591;SDS011;26301;42.832;23.918;2022-08-19T21:26:35;6.63;;;5.00;;
40591;SDS011;26301;42.832;23.918;2022-08-19T21:29:01;7.20;;;5.15;;
40591;SDS011;26301;42.832;23.918;2022-08-19T21:31:27;6.97;;;4.60;;
40591;SDS011;26301;42.832;23.918;2022-08-19T21:33:53;8.75;;;5.15;;
40591;SDS011;26301;42.832;23.918;2022-08-19T21:36:19;7.43;;;4.88;;
40591;SDS011;26301;42.832;23.918;2022-08-19T21:38:45;8.88;;;5.50;;
40591;SDS011;26301;42.832;23.918;2022-08-19T21:41:11;7.80;;;5.10;;
40591;SDS011;26301;42.832;23.918;2022-08-19T21:43:38;7.93;;;4.80;;
40591;SDS011;26301;42.832;23.918;2022-08-19T21:46:04;6.53;;;5.22;;
40591;SDS011;26301;42.832;23.918;2022-08-19T21:48:31;6.22;;;5.15;;
40591;SDS011;26301;42.832;23.918;2022-08-19T21:50:57;9.38;;;5.30;;
40591;SDS011;26301;42.832;23.918;2022-08-19T21:53:23;8.93;;;5.43;;
40591;SDS011;26301;42.832;23.918;2022-08-19T21:55:49;9.18;;;5.00;;
40591;SDS011;26301;42.832;23.918;2022-08-19T21:58:15;6.97;;;5.72;;
40591;SDS011;26301;42.832;23.918;2022-08-19T22:00:41;6.03;;;5.25;;
40591;SDS011;26301;42.832;23.918;2022-08-19T22:03:07;8.98;;;5.45;;
40591;SDS011;26301;42.832;23.918;2022-08-19T22:05:33;6.70;;;5.47;;
40591;SDS011;26301;42.832;23.918;2022-08-19T22:07:59;7.60;;;5.32;;
40591;SDS011;26301;42.832;23.918;2022-08-19T22:10:26;9.40;;;5.70;;
40591;SDS011;26301;42.832;23.918;2022-08-19T22:12:56;8.68;;;5.53;;
40591;SDS011;26301;42.832;23.918;2022-08-19T22:15:22;9.05;;;5.70;;
40591;SDS011;26301;42.832;23.918;2022-08-19T22:17:51;10.18;;;4.95;;
40591;SDS011;26301;42.832;23.918;2022-08-19T22:20:19;7.93;;;5.45;;
40591;SDS011;26301;42.832;23.918;2022-08-19T22:22:54;6.93;;;5.68;;
40591;SDS011;26301;42.832;23.918;2022-08-19T22:25:27;6.10;;;5.15;;
40591;SDS011;26301;42.832;23.918;2022-08-19T22:28:09;7.40;;;5.00;;
40591;SDS011;26301;42.832;23.918;2022-08-19T22:30:36;7.30;;;5.60;;
40591;SDS011;26301;42.832;23.918;2022-08-19T22:33:04;10.50;;;5.88;;
40591;SDS011;26301;42.832;23.918;2022-08-19T22:35:35;6.68;;;5.50;;
40591;SDS011;26301;42.832;23.918;2022-08-19T22:38:02;7.72;;;5.72;;
40591;SDS011;26301;42.832;23.918;2022-08-19T22:40:31;7.50;;;6.22;;
40591;SDS011;26301;42.832;23.918;2022-08-19T22:43:01;6.85;;;5.20;;
40591;SDS011;26301;42.832;23.918;2022-08-19T22:45:30;8.93;;;5.55;;
40591;SDS011;26301;42.832;23.918;2022-08-19T22:47:57;9.02;;;5.90;;
40591;SDS011;26301;42.832;23.918;2022-08-19T22:50:24;6.05;;;5.15;;
40591;SDS011;26301;42.832;23.918;2022-08-19T22:52:56;7.00;;;5.25;;
40591;SDS011;26301;42.832;23.918;2022-08-19T22:55:26;6.70;;;5.50;;
40591;SDS011;26301;42.832;23.918;2022-08-19T22:57:53;6.80;;;5.25;;
40591;SDS011;26301;42.832;23.918;2022-08-19T23:00:20;7.18;;;5.35;;
40591;SDS011;26301;42.832;23.918;2022-08-19T23:02:47;7.70;;;5.63;;
40591;SDS011;26301;42.832;23.918;2022-08-19T23:05:13;6.25;;;5.30;;
40591;SDS011;26301;42.832;23.918;2022-08-19T23:07:39;6.65;;;6.00;;
40591;SDS011;26301;42.832;23.918;2022-08-19T23:10:06;8.27;;;5.50;;
40591;SDS011;26301;42.832;23.918;2022-08-19T23:12:44;6.88;;;5.63;;
40591;SDS011;26301;42.832;23.918;2022-08-19T23:15:23;8.95;;;6.03;;
40591;SDS011;26301;42.832;23.918;2022-08-19T23:17:51;6.65;;;5.75;;
40591;SDS011;26301;42.832;23.918;2022-08-19T23:20:18;10.82;;;6.05;;
40591;SDS011;26301;42.832;23.918;2022-08-19T23:22:45;8.25;;;5.97;;
40591;SDS011;26301;42.832;23.918;2022-08-19T23:25:14;10.52;;;5.72;;
40591;SDS011;26301;42.832;23.918;2022-08-19T23:27:44;8.77;;;5.55;;
40591;SDS011;26301;42.832;23.918;2022-08-19T23:30:28;8.30;;;5.60;;
40591;SDS011;26301;42.832;23.918;2022-08-19T23:32:58;5.93;;;5.30;;
40591;SDS011;26301;42.832;23.918;2022-08-19T23:35:26;6.20;;;4.80;;
40591;SDS011;26301;42.832;23.918;2022-08-19T23:37:57;7.05;;;5.45;;
40591;SDS011;26301;42.832;23.918;2022-08-19T23:40:25;7.93;;;5.43;;
40591;SDS011;26301;42.832;23.918;2022-08-19T23:42:52;7.32;;;6.05;;
40591;SDS011;26301;42.832;23.918;2022-08-19T23:45:18;6.00;;;5.35;;
40591;SDS011;26301;42.832;23.918;2022-08-19T23:47:46;7.82;;;5.75;;
40591;SDS011;26301;42.832;23.918;2022-08-19T23:50:13;7.78;;;5.60;;
40591;SDS011;26301;42.832;23.918;2022-08-19T23:52:50;8.10;;;5.68;;
40591;SDS011;26301;42.832;23.918;2022-08-19T23:55:21;9.23;;;5.78;;
40591;SDS011;26301;42.832;23.918;2022-08-19T23:57:50;6.97;;;6.22;;
